createdAt,value
2022-09-15T00:00:30.441Z,16.20
2022-09-15T00:02:57.292Z,16.20
2022-09-15T00:05:24.111Z,16.30
2022-09-15T00:07:50.854Z,16.20
2022-09-15T00:10:17.922Z,16.10
2022-09-15T00:12:44.867Z,16.10
2022-09-15T00:15:14.755Z,16.10
2022-09-15T00:17:43.175Z,16.00
2022-09-15T00:20:10.502Z,16.00
2022-09-15T00:22:37.646Z,16.00
2022-09-15T00:25:05.408Z,15.90
2022-09-15T00:27:33.324Z,15.90
2022-09-15T00:30:00.227Z,15.90
2022-09-15T00:32:27.465Z,16.00
2022-09-15T00:34:54.430Z,16.10
2022-09-15T00:37:21.396Z,16.20
2022-09-15T00:39:48.520Z,16.20
2022-09-15T00:42:17.875Z,16.30
2022-09-15T00:45:00.210Z,16.30
2022-09-15T00:47:44.996Z,16.20
2022-09-15T00:50:16.115Z,16.20
2022-09-15T00:52:57.652Z,16.10
2022-09-15T00:55:27.224Z,16.20
2022-09-15T00:58:06.770Z,16.20
2022-09-15T01:00:34.558Z,16.20
2022-09-15T01:03:03.145Z,16.20
2022-09-15T01:05:36.830Z,16.30
2022-09-15T01:08:08.922Z,16.30
2022-09-15T01:10:39.002Z,16.30
2022-09-15T01:13:11.849Z,16.20
2022-09-15T01:15:57.528Z,16.30
2022-09-15T01:18:45.654Z,16.20
2022-09-15T01:21:44.748Z,16.20
2022-09-15T01:24:33.523Z,16.20
2022-09-15T01:27:24.433Z,16.10
2022-09-15T01:30:05.826Z,16.00
2022-09-15T01:33:05.507Z,15.80
2022-09-15T01:35:44.886Z,15.80
2022-09-15T01:38:15.753Z,15.60
2022-09-15T01:40:52.653Z,15.60
2022-09-15T01:43:22.289Z,15.50
2022-09-15T01:45:51.431Z,15.50
2022-09-15T01:48:24.772Z,15.40
2022-09-15T01:50:57.604Z,15.50
2022-09-15T01:53:24.808Z,15.30
2022-09-15T01:56:07.598Z,15.30
2022-09-15T01:58:35.070Z,15.30
2022-09-15T02:01:16.942Z,15.30
2022-09-15T02:04:09.789Z,15.30
2022-09-15T02:06:53.316Z,15.20
2022-09-15T02:09:28.157Z,15.20
2022-09-15T02:12:33.908Z,15.30
2022-09-15T02:15:03.363Z,15.30
2022-09-15T02:17:35.395Z,15.30
2022-09-15T02:20:34.439Z,15.40
2022-09-15T02:23:09.555Z,15.40
2022-09-15T02:25:43.966Z,15.50
2022-09-15T02:28:14.029Z,15.50
2022-09-15T02:30:44.094Z,15.50
2022-09-15T02:33:16.075Z,15.50
2022-09-15T02:35:43.608Z,15.50
2022-09-15T02:38:12.106Z,15.50
2022-09-15T02:40:44.003Z,15.40
2022-09-15T02:43:13.885Z,15.40
2022-09-15T02:45:40.918Z,15.30
2022-09-15T02:48:11.671Z,15.30
2022-09-15T02:50:39.044Z,15.20
2022-09-15T02:53:05.886Z,15.20
2022-09-15T02:55:32.679Z,15.30
2022-09-15T02:57:59.924Z,15.40
2022-09-15T03:00:28.395Z,15.40
2022-09-15T03:02:56.129Z,15.50
2022-09-15T03:05:28.774Z,15.60
2022-09-15T03:07:56.270Z,15.60
2022-09-15T03:10:24.850Z,15.60
2022-09-15T03:12:53.931Z,15.60
2022-09-15T03:15:24.269Z,15.50
2022-09-15T03:17:51.717Z,15.50
2022-09-15T03:20:26.065Z,15.50
2022-09-15T03:22:52.808Z,15.50
2022-09-15T03:25:19.817Z,15.50
2022-09-15T03:27:46.977Z,15.50
2022-09-15T03:30:14.316Z,15.60
2022-09-15T03:32:41.258Z,15.60
2022-09-15T03:35:08.513Z,15.60
2022-09-15T03:37:35.295Z,15.60
2022-09-15T03:40:03.673Z,15.60
2022-09-15T03:42:30.514Z,15.60
2022-09-15T03:44:57.244Z,15.70
2022-09-15T03:47:23.963Z,15.70
2022-09-15T03:49:50.796Z,15.70
2022-09-15T03:52:17.619Z,15.70
2022-09-15T03:54:44.462Z,15.70
2022-09-15T03:57:11.390Z,15.60
2022-09-15T03:59:38.114Z,15.70
2022-09-15T04:02:04.970Z,15.70
2022-09-15T04:04:32.051Z,15.70
2022-09-15T04:06:58.852Z,15.80
2022-09-15T04:09:25.838Z,15.80
2022-09-15T04:11:52.572Z,15.70
2022-09-15T04:14:19.304Z,15.80
2022-09-15T04:16:46.084Z,15.80
2022-09-15T04:19:13.093Z,15.70
2022-09-15T04:21:39.902Z,15.70
2022-09-15T04:24:06.777Z,15.80
2022-09-15T04:26:37.090Z,15.80
2022-09-15T04:29:10.844Z,15.80
2022-09-15T04:31:37.574Z,15.80
2022-09-15T04:34:04.608Z,15.80
2022-09-15T04:36:31.625Z,15.80
2022-09-15T04:38:58.568Z,15.80
2022-09-15T04:41:26.538Z,15.70
2022-09-15T04:43:53.381Z,15.60
2022-09-15T04:46:20.703Z,15.60
2022-09-15T04:48:48.734Z,15.50
2022-09-15T04:51:17.845Z,15.50
2022-09-15T04:53:45.248Z,15.40
2022-09-15T04:56:18.237Z,15.40
2022-09-15T04:59:01.065Z,15.40
2022-09-15T05:01:33.990Z,15.30
2022-09-15T05:04:03.979Z,15.30
2022-09-15T05:06:32.761Z,15.30
2022-09-15T05:08:59.878Z,15.30
2022-09-15T05:11:28.196Z,15.30
2022-09-15T05:13:55.207Z,15.30
2022-09-15T05:16:24.394Z,15.30
2022-09-15T05:18:52.830Z,15.30
2022-09-15T05:21:21.096Z,15.30
2022-09-15T05:23:48.465Z,15.40
2022-09-15T05:26:18.291Z,15.40
2022-09-15T05:28:45.348Z,15.40
2022-09-15T05:31:17.811Z,15.50
2022-09-15T05:33:45.376Z,15.50
2022-09-15T05:36:14.246Z,15.50
2022-09-15T05:38:41.400Z,15.50
2022-09-15T05:41:11.334Z,15.60
2022-09-15T05:43:39.545Z,15.70
2022-09-15T05:46:07.905Z,15.80
2022-09-15T05:48:35.466Z,15.80
2022-09-15T05:51:03.241Z,15.90
2022-09-15T05:53:31.131Z,15.90
2022-09-15T05:56:03.746Z,16.00
2022-09-15T05:58:30.995Z,16.10
2022-09-15T06:01:05.395Z,16.40
2022-09-15T06:03:32.734Z,17.20
2022-09-15T06:06:04.274Z,18.50
2022-09-15T06:08:33.259Z,18.50
2022-09-15T06:11:04.787Z,19.10
2022-09-15T06:13:31.971Z,20.20
2022-09-15T06:16:08.368Z,21.40
2022-09-15T06:18:37.295Z,21.90
2022-09-15T06:21:06.489Z,22.80
2022-09-15T06:23:33.250Z,22.80
2022-09-15T06:26:11.453Z,22.30
2022-09-15T06:28:39.590Z,22.80
2022-09-15T06:31:12.119Z,22.60
2022-09-15T06:33:43.341Z,22.00
2022-09-15T06:36:11.787Z,20.80
2022-09-15T06:38:39.419Z,19.90
2022-09-15T06:41:06.516Z,19.20
2022-09-15T06:43:33.902Z,19.00
2022-09-15T06:46:11.994Z,18.70
2022-09-15T06:48:40.096Z,18.60
2022-09-15T06:51:08.705Z,18.60
2022-09-15T06:53:38.128Z,18.40
2022-09-15T06:56:13.307Z,18.30
2022-09-15T06:58:41.471Z,18.30
2022-09-15T07:01:12.239Z,18.20
2022-09-15T07:03:41.564Z,18.20
2022-09-15T07:06:09.374Z,18.00
2022-09-15T07:08:36.198Z,17.90
2022-09-15T07:11:02.939Z,17.90
2022-09-15T07:13:30.447Z,17.60
2022-09-15T07:15:59.797Z,17.50
2022-09-15T07:18:27.172Z,17.40
2022-09-15T07:20:59.826Z,17.40
2022-09-15T07:23:27.088Z,17.40
2022-09-15T07:26:09.578Z,17.40
2022-09-15T07:28:37.043Z,17.40
2022-09-15T07:31:05.980Z,17.30
2022-09-15T07:33:34.114Z,17.30
2022-09-15T07:36:08.824Z,17.30
2022-09-15T07:38:38.942Z,17.30
2022-09-15T07:41:11.709Z,17.30
2022-09-15T07:43:39.271Z,17.30
2022-09-15T07:46:06.376Z,17.30
2022-09-15T07:48:33.445Z,17.30
2022-09-15T07:51:00.211Z,17.40
2022-09-15T07:53:30.620Z,17.40
2022-09-15T07:55:57.514Z,17.40
2022-09-15T07:58:25.108Z,17.50
2022-09-15T08:00:52.183Z,17.40
2022-09-15T08:03:19.172Z,17.30
2022-09-15T08:05:46.292Z,17.30
2022-09-15T08:08:13.265Z,17.20
2022-09-15T08:10:41.338Z,17.20
2022-09-15T08:13:08.446Z,17.20
2022-09-15T08:15:38.935Z,17.20
2022-09-15T08:18:06.222Z,17.20
2022-09-15T08:20:33.610Z,17.20
2022-09-15T08:23:00.720Z,17.30
2022-09-15T08:25:27.535Z,17.30
2022-09-15T08:27:56.289Z,17.30
2022-09-15T08:30:23.730Z,17.50
2022-09-15T08:32:51.196Z,17.60
2022-09-15T08:35:18.506Z,17.60
2022-09-15T08:37:46.023Z,17.80
2022-09-15T08:40:25.944Z,17.80
2022-09-15T08:42:56.294Z,17.80
2022-09-15T08:45:29.196Z,17.80
2022-09-15T08:48:03.504Z,17.80
2022-09-15T08:50:39.837Z,17.80
2022-09-15T08:53:16.880Z,17.80
2022-09-15T08:55:43.568Z,17.70
2022-09-15T08:58:17.255Z,17.70
2022-09-15T09:00:46.722Z,17.80
2022-09-15T09:03:16.389Z,17.80
2022-09-15T09:06:10.369Z,18.00
2022-09-15T09:09:07.625Z,18.20
2022-09-15T09:12:05.430Z,18.60
2022-09-15T09:14:43.716Z,19.40
2022-09-15T09:17:29.023Z,20.10
2022-09-15T09:20:01.635Z,20.80
2022-09-15T09:22:34.138Z,21.00
2022-09-15T09:25:11.618Z,20.80
2022-09-15T09:27:49.120Z,20.50
2022-09-15T09:30:19.330Z,20.10
2022-09-15T09:32:58.019Z,20.30
2022-09-15T09:35:42.589Z,20.10
2022-09-15T09:38:35.166Z,20.00
2022-09-15T09:41:05.043Z,20.30
2022-09-15T09:43:32.914Z,20.20
2022-09-15T09:45:59.851Z,19.80
2022-09-15T09:48:28.798Z,19.60
2022-09-15T09:50:56.128Z,19.50
2022-09-15T09:53:26.230Z,19.70
2022-09-15T09:56:15.444Z,19.90
2022-09-15T09:58:43.111Z,19.90
2022-09-15T10:01:13.521Z,20.10
2022-09-15T10:03:41.839Z,20.20
2022-09-15T10:06:13.090Z,20.30
2022-09-15T10:09:03.415Z,20.50
2022-09-15T10:11:47.859Z,20.50
2022-09-15T10:14:38.477Z,20.40
2022-09-15T10:17:11.261Z,21.10
2022-09-15T10:19:48.738Z,22.00
2022-09-15T10:22:21.504Z,22.40
2022-09-15T10:24:50.106Z,22.80
2022-09-15T10:27:19.015Z,22.80
2022-09-15T10:29:46.235Z,22.20
2022-09-15T10:32:25.534Z,21.70
2022-09-15T10:35:12.633Z,21.10
2022-09-15T10:37:58.004Z,20.20
2022-09-15T10:40:24.746Z,19.40
2022-09-15T10:42:52.620Z,18.70
2022-09-15T10:45:19.352Z,18.50
2022-09-15T10:47:57.331Z,18.30
2022-09-15T10:50:35.073Z,18.20
2022-09-15T10:53:24.130Z,18.10
2022-09-15T10:56:30.425Z,17.90
2022-09-15T10:59:21.817Z,17.90
2022-09-15T11:02:11.669Z,17.90
2022-09-15T11:04:53.398Z,18.10
2022-09-15T11:07:29.115Z,18.40
2022-09-15T11:10:18.658Z,18.70
2022-09-15T11:13:04.013Z,19.20
2022-09-15T11:15:57.032Z,19.60
2022-09-15T11:18:42.318Z,19.60
2022-09-15T11:21:25.516Z,19.90
2022-09-15T11:24:11.091Z,19.60
2022-09-15T11:26:48.223Z,19.40
2022-09-15T11:29:23.951Z,19.70
2022-09-15T11:31:56.341Z,19.50
2022-09-15T11:34:35.448Z,19.50
2022-09-15T11:37:19.210Z,19.70
2022-09-15T11:40:01.706Z,19.70
2022-09-15T11:42:56.070Z,19.60
2022-09-15T11:45:27.791Z,19.50
2022-09-15T11:48:04.277Z,19.30
2022-09-15T11:50:35.908Z,19.30
2022-09-15T11:53:19.472Z,19.20
2022-09-15T11:55:55.728Z,19.00
2022-09-15T11:58:48.849Z,18.80
2022-09-15T12:01:22.394Z,18.70
2022-09-15T12:03:52.747Z,18.70
2022-09-15T12:06:26.897Z,18.70
2022-09-15T12:09:00.766Z,18.60
2022-09-15T12:11:34.486Z,18.60
2022-09-15T12:14:04.299Z,18.40
2022-09-15T12:16:33.712Z,18.20
2022-09-15T12:19:43.451Z,18.20
2022-09-15T12:22:17.756Z,18.00
2022-09-15T12:24:53.031Z,17.90
2022-09-15T12:27:21.373Z,17.70
2022-09-15T12:29:51.022Z,17.50
2022-09-15T12:32:26.783Z,17.40
2022-09-15T12:34:59.470Z,17.20
2022-09-15T12:37:34.160Z,17.10
2022-09-15T12:40:01.878Z,17.10
2022-09-15T12:42:33.672Z,17.10
2022-09-15T12:45:20.909Z,17.10
2022-09-15T12:47:56.400Z,17.00
2022-09-15T12:50:28.857Z,16.90
2022-09-15T12:53:02.167Z,16.90
2022-09-15T12:55:37.576Z,16.90
2022-09-15T12:58:18.920Z,16.80
2022-09-15T13:01:13.968Z,16.90
2022-09-15T13:03:41.705Z,16.90
2022-09-15T13:06:16.230Z,16.40
2022-09-15T13:09:06.100Z,16.30
2022-09-15T13:11:42.942Z,16.40
2022-09-15T13:14:19.670Z,16.60
2022-09-15T13:16:59.569Z,16.50
2022-09-15T13:19:41.463Z,16.50
2022-09-15T13:22:11.300Z,16.40
2022-09-15T13:25:04.590Z,16.30
2022-09-15T13:27:56.725Z,16.10
2022-09-15T13:30:23.462Z,16.10
2022-09-15T13:33:15.808Z,16.10
2022-09-15T13:35:51.836Z,16.00
2022-09-15T13:38:56.988Z,16.10
2022-09-15T13:41:55.815Z,16.10
2022-09-15T13:45:03.710Z,16.30
2022-09-15T13:47:56.207Z,16.60
2022-09-15T13:50:32.875Z,16.80
2022-09-15T13:53:03.210Z,16.80
2022-09-15T13:55:35.183Z,17.00
2022-09-15T14:00:53.555Z,17.20
2022-09-15T14:03:42.936Z,17.20
2022-09-15T14:06:23.218Z,17.30
2022-09-15T14:08:54.694Z,17.20
2022-09-15T14:11:31.890Z,17.00
2022-09-15T14:14:00.572Z,17.10
2022-09-15T14:16:28.075Z,17.10
2022-09-15T14:18:58.337Z,17.50
2022-09-15T14:21:27.409Z,18.10
2022-09-15T14:23:57.942Z,18.40
2022-09-15T14:26:30.593Z,18.30
2022-09-15T14:28:59.695Z,18.10
2022-09-15T14:31:37.944Z,17.80
2022-09-15T14:34:18.731Z,17.70
2022-09-15T14:36:46.596Z,17.60
2022-09-15T14:39:20.335Z,17.80
2022-09-15T14:41:48.149Z,17.60
2022-09-15T14:47:28.023Z,17.10
2022-09-15T14:50:13.504Z,17.10
2022-09-15T14:52:43.427Z,17.00
2022-09-15T14:55:26.117Z,17.00
2022-09-15T14:58:17.719Z,16.80
2022-09-15T15:01:24.111Z,16.60
2022-09-15T15:04:12.300Z,16.50
2022-09-15T15:06:54.085Z,16.20
2022-09-15T15:09:37.624Z,16.10
2022-09-15T15:12:10.963Z,16.10
2022-09-15T15:14:37.868Z,16.00
2022-09-15T15:17:08.357Z,15.90
2022-09-15T15:19:41.324Z,15.80
2022-09-15T15:22:13.927Z,15.70
2022-09-15T15:24:43.880Z,15.90
2022-09-15T15:27:32.414Z,15.90
2022-09-15T15:30:29.568Z,15.80
2022-09-15T15:33:19.460Z,15.90
2022-09-15T15:35:47.403Z,16.00
2022-09-15T15:38:19.498Z,15.90
2022-09-15T15:40:46.904Z,15.60
2022-09-15T15:43:25.192Z,15.70
2022-09-15T15:45:58.358Z,15.70
2022-09-15T15:48:26.566Z,15.70
2022-09-15T15:50:53.547Z,15.60
2022-09-15T15:53:20.523Z,15.40
2022-09-15T15:55:47.327Z,15.30
2022-09-15T15:58:15.220Z,15.30
2022-09-15T16:00:46.614Z,15.30
2022-09-15T16:03:15.155Z,15.30
2022-09-15T16:05:45.480Z,15.30
2022-09-15T16:08:20.725Z,15.20
2022-09-15T16:10:49.063Z,15.10
2022-09-15T16:13:18.042Z,15.20
2022-09-15T16:15:45.249Z,15.10
2022-09-15T16:18:13.024Z,15.10
2022-09-15T16:20:40.786Z,15.20
2022-09-15T16:23:11.682Z,15.10
2022-09-15T16:26:02.530Z,15.20
2022-09-15T16:28:29.639Z,15.30
2022-09-15T16:30:59.310Z,15.30
2022-09-15T16:33:26.806Z,15.40
2022-09-15T16:36:07.064Z,15.40
2022-09-15T16:38:34.894Z,15.30
2022-09-15T16:41:03.504Z,15.10
2022-09-15T16:43:30.625Z,15.20
2022-09-15T16:45:57.406Z,15.10
2022-09-15T16:48:24.285Z,15.10
2022-09-15T16:51:16.112Z,15.10
2022-09-15T16:53:39.449Z,15.20
2022-09-15T16:56:07.566Z,15.20
2022-09-15T16:58:34.508Z,15.20
2022-09-15T17:01:01.262Z,15.20
2022-09-15T17:03:28.295Z,15.10
2022-09-15T17:05:58.753Z,15.00
2022-09-15T17:08:31.263Z,14.90
2022-09-15T17:11:00.121Z,14.90
2022-09-15T17:13:30.465Z,14.90
2022-09-15T17:15:58.698Z,14.80
2022-09-15T17:18:25.923Z,14.80
2022-09-15T17:20:52.898Z,14.70
2022-09-15T17:23:24.960Z,14.60
2022-09-15T17:25:58.958Z,14.50
2022-09-15T17:28:28.835Z,14.50
2022-09-15T17:31:04.884Z,14.50
2022-09-15T17:33:32.538Z,14.60
2022-09-15T17:36:00.228Z,14.50
2022-09-15T17:38:27.542Z,14.40
2022-09-15T17:40:55.449Z,14.30
2022-09-15T17:43:25.159Z,14.10
2022-09-15T17:45:52.297Z,13.90
2022-09-15T17:48:19.912Z,13.90
2022-09-15T17:50:48.684Z,13.80
2022-09-15T17:53:18.194Z,13.80
2022-09-15T17:55:44.932Z,13.60
2022-09-15T17:58:11.818Z,13.60
2022-09-15T18:00:40.774Z,13.40
2022-09-15T18:03:37.190Z,13.30
2022-09-15T18:06:07.859Z,13.10
2022-09-15T18:08:35.993Z,12.90
2022-09-15T18:11:04.004Z,12.80
2022-09-15T18:13:31.276Z,12.70
2022-09-15T18:16:03.191Z,12.70
2022-09-15T18:18:30.390Z,12.60
2022-09-15T18:20:58.399Z,12.50
2022-09-15T18:23:28.286Z,12.50
2022-09-15T18:25:55.496Z,12.40
2022-09-15T18:28:22.244Z,12.30
2022-09-15T18:30:50.215Z,12.20
2022-09-15T18:33:21.342Z,12.20
2022-09-15T18:35:50.338Z,12.10
2022-09-15T18:38:17.765Z,12.00
2022-09-15T18:40:50.078Z,12.10
2022-09-15T18:43:17.229Z,12.20
2022-09-15T18:45:44.349Z,12.20
2022-09-15T18:48:13.035Z,12.20
2022-09-15T18:50:41.176Z,12.20
2022-09-15T18:53:08.139Z,12.30
2022-09-15T18:55:35.085Z,12.30
2022-09-15T18:58:02.344Z,12.40
2022-09-15T19:00:29.693Z,12.30
2022-09-15T19:03:01.054Z,12.30
2022-09-15T19:05:29.255Z,12.20
2022-09-15T19:07:56.153Z,12.30
2022-09-15T19:10:23.560Z,12.20
2022-09-15T19:12:50.785Z,12.10
2022-09-15T19:15:17.664Z,12.10
2022-09-15T19:17:45.067Z,12.10
2022-09-15T19:20:14.608Z,12.10
2022-09-15T19:22:42.275Z,12.10
2022-09-15T19:25:10.966Z,12.10
2022-09-15T19:27:38.653Z,12.00
2022-09-15T19:30:06.658Z,11.90
2022-09-15T19:32:33.850Z,11.90
2022-09-15T19:35:00.843Z,11.90
2022-09-15T19:37:27.704Z,11.80
2022-09-15T19:39:54.795Z,11.80
2022-09-15T19:42:21.678Z,11.80
2022-09-15T19:44:49.419Z,11.80
2022-09-15T19:47:16.327Z,11.90
2022-09-15T19:49:43.048Z,11.80
2022-09-15T19:52:09.757Z,11.80
2022-09-15T19:54:36.608Z,11.70
2022-09-15T19:57:03.562Z,11.60
2022-09-15T19:59:31.999Z,11.50
2022-09-15T20:02:00.551Z,11.50
2022-09-15T20:04:28.703Z,11.50
2022-09-15T20:06:55.468Z,11.50
2022-09-15T20:09:22.616Z,11.40
2022-09-15T20:11:49.467Z,11.40
2022-09-15T20:14:16.429Z,11.40
2022-09-15T20:16:43.250Z,11.40
2022-09-15T20:19:10.722Z,11.40
2022-09-15T20:21:49.937Z,11.40
2022-09-15T20:24:18.855Z,11.40
2022-09-15T20:26:45.741Z,11.40
2022-09-15T20:29:13.204Z,11.40
2022-09-15T20:31:40.688Z,11.30
2022-09-15T20:34:07.703Z,11.30
2022-09-15T20:36:36.798Z,11.30
2022-09-15T20:39:05.959Z,11.30
2022-09-15T20:41:32.710Z,11.30
2022-09-15T20:43:59.524Z,11.30
2022-09-15T20:46:26.520Z,11.20
2022-09-15T20:48:53.419Z,11.20
2022-09-15T20:51:25.660Z,11.20
2022-09-15T20:53:54.990Z,11.30
2022-09-15T20:56:25.363Z,11.30
2022-09-15T20:58:53.893Z,11.30
2022-09-15T21:01:23.708Z,11.30
2022-09-15T21:03:51.181Z,11.30
2022-09-15T21:06:20.355Z,11.20
2022-09-15T21:08:47.960Z,11.20
2022-09-15T21:11:16.058Z,11.10
2022-09-15T21:13:43.552Z,11.00
2022-09-15T21:16:14.130Z,10.90
2022-09-15T21:18:42.164Z,10.80
2022-09-15T21:21:12.159Z,10.70
2022-09-15T21:23:50.126Z,10.70
2022-09-15T21:26:19.926Z,10.60
2022-09-15T21:28:47.363Z,10.60
2022-09-15T21:31:17.567Z,10.60
2022-09-15T21:33:46.438Z,10.60
2022-09-15T21:36:17.283Z,10.60
2022-09-15T21:38:44.689Z,10.70
2022-09-15T21:41:14.391Z,10.60
2022-09-15T21:43:43.161Z,10.60
2022-09-15T21:46:18.395Z,10.60
2022-09-15T21:48:47.278Z,10.60
2022-09-15T21:51:23.996Z,10.60
2022-09-15T21:53:56.115Z,10.50
2022-09-15T21:56:23.902Z,10.50
2022-09-15T21:58:50.993Z,10.40
2022-09-15T22:01:20.416Z,10.40
2022-09-15T22:03:52.910Z,10.40
2022-09-15T22:06:22.324Z,10.50
2022-09-15T22:08:49.282Z,10.50
2022-09-15T22:11:16.088Z,10.60
2022-09-15T22:13:44.555Z,10.50
2022-09-15T22:16:14.972Z,10.50
2022-09-15T22:18:42.256Z,10.50
2022-09-15T22:21:23.919Z,10.50
2022-09-15T22:23:51.819Z,10.40
2022-09-15T22:26:25.370Z,10.30
2022-09-15T22:28:52.243Z,10.20
2022-09-15T22:31:20.694Z,10.20
2022-09-15T22:33:47.980Z,10.20
2022-09-15T22:36:17.654Z,10.10
2022-09-15T22:38:45.261Z,10.00
2022-09-15T22:41:14.328Z,9.90
2022-09-15T22:43:42.927Z,9.80
2022-09-15T22:46:11.026Z,9.70
2022-09-15T22:48:43.019Z,9.60
2022-09-15T22:51:11.148Z,9.60
2022-09-15T22:53:38.137Z,9.60
2022-09-15T22:56:09.891Z,9.50
2022-09-15T22:58:37.288Z,9.40
2022-09-15T23:01:10.522Z,9.50
2022-09-15T23:03:38.030Z,9.70
2022-09-15T23:06:05.669Z,9.70
2022-09-15T23:08:33.397Z,9.70
2022-09-15T23:11:05.664Z,9.80
2022-09-15T23:13:32.652Z,9.80
2022-09-15T23:15:59.703Z,9.80
2022-09-15T23:18:27.293Z,9.80
2022-09-15T23:21:02.068Z,9.90
2022-09-15T23:23:29.267Z,9.90
2022-09-15T23:25:56.425Z,10.00
2022-09-15T23:28:23.826Z,10.00
2022-09-15T23:30:54.823Z,10.00
2022-09-15T23:33:22.748Z,10.10
2022-09-15T23:35:50.059Z,10.10
2022-09-15T23:38:18.130Z,10.20
2022-09-15T23:40:45.525Z,10.20
2022-09-15T23:43:13.775Z,10.30
2022-09-15T23:45:41.926Z,10.20
2022-09-15T23:48:10.510Z,10.10
2022-09-15T23:50:38.702Z,10.10
2022-09-15T23:53:06.091Z,10.10
2022-09-15T23:55:32.997Z,10.10
2022-09-15T23:57:59.834Z,10.20
